EETN/TLL METAR and TAF weather

Enter ICAO airport designator
Station Type Date Time Source
EETN METAR 2021/05/14 06:20 UTC NOAA

EETN 140620Z 11010KT 9999 FEW020 14/10 Q1007 NOSIG


Station Type Date Time Source
EETN Decoded METAR 2021/05/14 06:20 UTC NOAA

Tallinn, Estonia (EETN) 59-24N 024-49E 34M
May 14, 2021 - 02:20 AM EDT / 2021.05.14 0620 UTC
Wind: from the ESE (110 degrees) at 12 MPH (10 KT):0
Visibility: greater than 7 mile(s):0
Sky conditions: mostly clear
Temperature: 57 F (14 C)
Dew Point: 50 F (10 C)
Relative Humidity: 76%
Pressure (altimeter): 29.74 in. Hg (1007 hPa)
ob: EETN 140620Z 11010KT 9999 FEW020 14/10 Q1007 NOSIG
cycle: 6

Station Type Date Time Source
EETN TAF 2021/05/14 06:27 UTC NOAA

TAF TAF EETN 140525Z 1406/1506 12012KT CAVOK PROB40
TEMPO 1408/1412 SCT030CB BKN040
TEMPO 1412/1501 5000 SHRA BKN015 SCT025CB

Example: see airport list